アムステルダム/スキポール の空港の天気 - METARとTAF

スキポール空港(アムステルダム) ( EHAM / AMS ) - オランダ アムステルダム
飛行場実況気象(Metar)
観測時間07/22 02:25 CEST (07/22 00:25 UTC)
風向・風速東 5m/s
視程10km以上
天気現象
なし
気温18℃
湿度64%
気圧1009hPa
METAREHAM 220025Z 10010KT CAVOK 18/11 Q1009 NOSIG
過去の天気等 Google飛行場航空写真 Wunderground天気予報

過去48時間のMETAR

飛行場予報(TAF)
発表時間: 7/22 00:59 CEST (7/21 22:59 UTC)
予報対象時間: 22日2時 CEST ~ 23日8時 CEST
風向・風速東 4m/s
視程10km以上
なし
22日7時 CEST ~ 22日10時 CEST に徐々に
風向・風速南 5m/s
22日14時 CEST ~ 22日17時 CEST に徐々に
風向・風速西南西 4m/s
22日17時 CEST ~ 23日2時 CEST に一時的に
視程6,000m
天気現象しゅう雨 雨
全天の4割程度の積乱雲 雲底高度 610m
全天の8割程度の雲 雲底高度 1,220m
22日18時 CEST ~ 23日2時 CEST に 確率 30% で一時的に
風向・風速南南西 6m/s 瞬間風速 11m/s
視程4,000m
天気現象雷雨
23日5時 CEST ~ 23日8時 CEST に 確率 30% で一時的に
風向・風速南西 6m/s 瞬間風速 11m/s
視程4,000m
天気現象しゅう雨 雷雨
全天の4割程度の積乱雲 雲底高度 910m
全天の8割程度の雲 雲底高度 1,220m
TAF EHAM 212259Z 2200/2306 09007KT CAVOK
BECMG 2205/2208 18010KT
BECMG 2212/2215 25007KT
TEMPO 2215/2224 6000 SHRA RA SCT020CB BKN040
PROB30 TEMPO 2216/2224 20012G22KT 4000 TSRA
PROB30 TEMPO 2303/2306 23012G22KT 4000 SHRA TSRA SCT030CB BKN040